Time;durP1;ratioP1;P1;durP2;ratioP2;P2;SDS_P1;SDS_P2;PMS_P1;PMS_P2;Temp;Humidity;BMP_temperature;BMP_pressure;BME280_temperature;BME280_humidity;BME280_pressure;Samples;Min_cycle;Max_cycle;Signal;HPM_P1;HPM_P2
2022/06/10 00:00:29;;;;;;;4.80;2.73;;;;;;;14.10;89.92;98670.06;4179420;28;20756;-85
2022/06/10 00:02:32;;;;;;;3.10;2.70;;;;;;;14.07;89.59;98669.47;4158331;28;20770;-86
2022/06/10 00:04:35;;;;;;;3.90;3.00;;;;;;;14.03;89.91;98670.63;4160170;28;20629;-85
2022/06/10 00:06:38;;;;;;;5.57;3.30;;;;;;;14.04;89.42;98675.72;4171927;28;20635;-85
2022/06/10 00:08:44;;;;;;;3.70;3.10;;;;;;;14.03;89.66;98668.00;4195981;28;20740;-85
2022/06/10 00:10:50;;;;;;;7.27;3.47;;;;;;;14.02;90.09;98669.78;4161402;28;20663;-85
2022/06/10 00:12:53;;;;;;;5.33;3.37;;;;;;;14.03;90.50;98666.22;4158457;28;20737;-85
2022/06/10 00:14:56;;;;;;;6.00;3.27;;;;;;;14.04;90.65;98672.28;4154300;28;21240;-85
2022/06/10 00:16:59;;;;;;;3.50;3.20;;;;;;;14.05;90.22;98668.75;4220695;28;20725;-85
2022/06/10 00:19:02;;;;;;;8.63;3.40;;;;;;;14.01;90.36;98668.13;4211963;28;20637;-85
2022/06/10 00:21:09;;;;;;;4.10;3.33;;;;;;;14.01;90.84;98669.88;4216400;28;20649;-85
2022/06/10 00:23:13;;;;;;;5.60;3.80;;;;;;;14.02;91.00;98669.78;4223770;28;20636;-85
2022/06/10 00:25:17;;;;;;;4.90;3.20;;;;;;;13.99;90.24;98667.38;4207161;28;20673;-85
2022/06/10 00:27:25;;;;;;;5.73;3.13;;;;;;;13.99;90.38;98671.78;4209541;28;20638;-85
2022/06/10 00:29:28;;;;;;;4.20;3.03;;;;;;;13.99;90.35;98669.16;4221581;28;20630;-85
2022/06/10 00:31:31;;;;;;;4.07;3.20;;;;;;;13.94;89.98;98669.50;4209396;28;20617;-85
2022/06/10 00:33:34;;;;;;;5.60;3.43;;;;;;;13.96;90.76;98677.25;4214845;28;20627;-85
2022/06/10 00:35:37;;;;;;;6.30;4.00;;;;;;;13.95;90.83;98680.81;4217399;28;20746;-86
2022/06/10 00:37:42;;;;;;;6.90;3.50;;;;;;;13.94;91.74;98682.63;4206813;28;20630;-85
2022/06/10 00:39:45;;;;;;;7.13;3.80;;;;;;;13.94;91.29;98685.25;4211825;28;20699;-85
2022/06/10 00:41:48;;;;;;;5.30;3.80;;;;;;;13.94;90.99;98681.78;4218340;28;21265;-85
2022/06/10 00:43:53;;;;;;;3.57;3.27;;;;;;;13.92;91.07;98681.91;4203381;28;20629;-86
2022/06/10 00:46:00;;;;;;;4.17;3.47;;;;;;;13.92;91.11;98684.53;4218426;28;20628;-85
2022/06/10 00:48:04;;;;;;;4.23;3.53;;;;;;;13.90;90.93;98681.16;4231161;28;21280;-84
2022/06/10 00:50:31;;;;;;;5.23;3.60;;;;;;;13.82;91.27;98680.88;4233913;27;21197;-86
2022/06/10 00:52:37;;;;;;;3.90;3.50;;;;;;;13.80;92.02;98684.53;4208366;28;21229;-85
2022/06/10 00:54:42;;;;;;;6.00;4.00;;;;;;;13.80;91.24;98685.41;4205401;28;20661;-85
2022/06/10 00:56:49;;;;;;;7.57;3.70;;;;;;;13.80;90.80;98687.16;4205278;28;20682;-85
2022/06/10 00:58:56;;;;;;;6.20;3.90;;;;;;;13.76;90.69;98686.56;4215632;28;20659;-85
2022/06/10 01:01:09;;;;;;;3.60;3.20;;;;;;;13.71;90.57;98677.34;4222567;28;20631;-85
2022/06/10 01:03:42;;;;;;;3.83;3.27;;;;;;;13.67;90.57;98684.59;4195867;28;20634;-85
2022/06/10 01:05:45;;;;;;;3.70;3.40;;;;;;;13.65;91.04;98677.78;4195383;28;21262;-86
2022/06/10 01:07:51;;;;;;;4.90;3.67;;;;;;;13.64;90.68;98682.19;4193536;28;20633;-85
2022/06/10 01:09:55;;;;;;;5.50;3.60;;;;;;;13.63;90.83;98681.47;4162424;28;21036;-85
2022/06/10 01:12:25;;;;;;;4.93;3.70;;;;;;;13.61;90.76;98680.75;4177118;28;21245;-85
2022/06/10 01:14:37;;;;;;;6.40;3.83;;;;;;;13.60;91.00;98679.06;4172292;28;20637;-85
2022/06/10 01:16:47;;;;;;;4.40;3.63;;;;;;;13.58;91.23;98684.41;4164773;28;20654;-85
2022/06/10 01:18:56;;;;;;;4.00;3.33;;;;;;;13.58;90.80;98686.22;4176946;28;20636;-85
2022/06/10 01:21:19;;;;;;;5.10;3.50;;;;;;;13.54;90.88;98689.97;4179692;28;20880;-86
2022/06/10 01:23:49;;;;;;;3.90;3.40;;;;;;;13.49;90.84;98687.69;4165447;28;20619;-85
2022/06/10 01:26:22;;;;;;;6.80;3.40;;;;;;;13.45;91.03;98685.38;4221642;28;21173;-85
2022/06/10 01:28:37;;;;;;;8.93;4.10;;;;;;;13.46;91.50;98689.69;4188029;28;20640;-86
2022/06/10 01:30:52;;;;;;;4.67;4.10;;;;;;;13.43;91.14;98695.97;4208355;28;20632;-85
2022/06/10 01:33:03;;;;;;;4.73;3.90;;;;;;;13.42;92.14;98696.06;4206431;28;20641;-85
2022/06/10 01:35:17;;;;;;;4.53;3.93;;;;;;;13.39;92.22;98697.13;4214524;28;20650;-85
2022/06/10 01:37:27;;;;;;;5.50;3.80;;;;;;;13.39;91.22;98693.66;4210738;28;21209;-86
2022/06/10 01:39:39;;;;;;;5.43;3.70;;;;;;;13.31;91.45;98696.81;4206861;28;20620;-86
2022/06/10 01:41:48;;;;;;;5.90;3.80;;;;;;;13.32;91.71;98702.88;4221002;28;21218;-86
2022/06/10 01:43:57;;;;;;;5.20;4.03;;;;;;;13.31;90.91;98707.31;4215727;28;21230;-86
2022/06/10 01:46:08;;;;;;;7.80;3.70;;;;;;;13.28;91.46;98710.13;4215218;28;20973;-85
2022/06/10 01:48:15;;;;;;;5.27;4.30;;;;;;;13.29;91.89;98705.72;4204577;28;20623;-86
2022/06/10 01:50:22;;;;;;;4.40;3.70;;;;;;;13.27;91.55;98708.44;4211330;28;20626;-86
2022/06/10 01:52:32;;;;;;;4.53;3.80;;;;;;;13.17;90.42;98706.59;4212770;28;20638;-85
2022/06/10 01:54:40;;;;;;;6.13;3.80;;;;;;;13.12;90.61;98702.59;4223244;28;20734;-85
2022/06/10 01:56:47;;;;;;;5.63;3.47;;;;;;;13.08;90.39;98707.22;4239688;27;20645;-85
2022/06/10 01:58:53;;;;;;;3.73;3.20;;;;;;;13.02;90.17;98704.16;4205425;28;20641;-85
2022/06/10 02:01:03;;;;;;;5.50;3.40;;;;;;;12.96;89.48;98708.06;4211499;28;20630;-85
2022/06/10 02:03:10;;;;;;;4.63;3.10;;;;;;;12.93;89.41;98697.78;4213422;28;21197;-86
2022/06/10 02:05:17;;;;;;;11.50;3.67;;;;;;;12.94;90.38;98703.84;4214335;28;20614;-86
2022/06/10 02:07:22;;;;;;;4.27;3.87;;;;;;;12.94;91.77;98706.47;4208178;28;20626;-85
2022/06/10 02:09:27;;;;;;;4.23;3.50;;;;;;;12.96;91.99;98702.81;4211185;28;20642;-86
2022/06/10 02:11:32;;;;;;;5.67;3.90;;;;;;;12.97;92.13;98712.34;4222461;28;20645;-85
2022/06/10 02:13:40;;;;;;;9.63;4.13;;;;;;;13.03;91.08;98709.28;4209397;28;20686;-86
2022/06/10 02:15:46;;;;;;;5.10;3.87;;;;;;;13.06;92.14;98709.09;4217530;28;20648;-85
2022/06/10 02:18:03;;;;;;;5.47;4.00;;;;;;;13.03;91.57;98713.72;4223604;28;20646;-86
2022/06/10 02:20:10;;;;;;;7.40;4.77;;;;;;;13.03;92.19;98722.38;4209342;28;20637;-85
2022/06/10 02:22:17;;;;;;;11.43;3.43;;;;;;;13.03;92.10;98719.78;4223536;28;20650;-85
2022/06/10 02:24:26;;;;;;;6.00;4.13;;;;;;;13.02;92.36;98719.88;4216503;28;20995;-85
2022/06/10 02:26:32;;;;;;;8.00;4.30;;;;;;;12.99;92.39;98717.47;4204622;28;20636;-85
2022/06/10 02:28:38;;;;;;;7.07;4.50;;;;;;;12.95;92.16;98727.31;4205266;28;20666;-86
2022/06/10 02:30:43;;;;;;;4.67;3.67;;;;;;;12.93;91.45;98723.13;4217727;28;20634;-86
2022/06/10 02:32:48;;;;;;;4.87;3.60;;;;;;;12.92;90.83;98727.53;4224519;28;20645;-85
2022/06/10 02:34:54;;;;;;;3.97;3.50;;;;;;;12.90;90.83;98726.81;4212103;28;20660;-85
2022/06/10 02:37:04;;;;;;;3.97;3.57;;;;;;;12.87;90.47;98734.00;4201435;28;20771;-86
2022/06/10 02:39:11;;;;;;;3.77;3.30;;;;;;;12.82;91.55;98726.47;4211238;28;20665;-85
2022/06/10 02:41:23;;;;;;;5.63;3.60;;;;;;;12.79;90.45;98731.88;4219656;28;20634;-86
2022/06/10 02:43:32;;;;;;;4.30;3.47;;;;;;;12.76;90.86;98723.38;4214309;28;20606;-85
2022/06/10 02:45:42;;;;;;;6.47;3.30;;;;;;;12.72;90.36;98730.59;4209802;28;21188;-85
2022/06/10 02:48:11;;;;;;;6.23;3.50;;;;;;;12.72;90.58;98725.38;4216744;28;20725;-85
2022/06/10 02:50:17;;;;;;;3.57;3.27;;;;;;;12.72;90.88;98729.78;4225122;28;20636;-85
2022/06/10 02:52:23;;;;;;;5.13;3.63;;;;;;;12.73;91.27;98727.06;4201647;28;20657;-86
2022/06/10 02:54:29;;;;;;;5.73;3.97;;;;;;;12.71;90.15;98728.91;4220036;28;20606;-85
2022/06/10 02:56:32;;;;;;;6.17;4.00;;;;;;;12.70;90.60;98732.50;4211107;28;20647;-85
2022/06/10 03:01:12;;;;;;;6.77;3.40;;;;;;;12.67;91.98;98733.63;4210397;28;20618;-85
2022/06/10 03:03:22;;;;;;;5.43;3.50;;;;;;;12.63;91.75;98734.75;4225629;28;20629;-85
2022/06/10 03:05:33;;;;;;;6.03;4.20;;;;;;;12.62;90.56;98748.81;4199740;28;20623;-85
2022/06/10 03:07:48;;;;;;;5.53;3.83;;;;;;;12.62;91.97;98751.44;4221849;28;20619;-85
2022/06/10 03:10:01;;;;;;;3.97;3.57;;;;;;;12.62;91.10;98757.50;4221260;28;20646;-85
2022/06/10 03:12:11;;;;;;;5.60;3.90;;;;;;;12.62;90.66;98760.09;4218427;28;20640;-85
2022/06/10 03:14:22;;;;;;;6.77;4.23;;;;;;;12.62;91.49;98761.91;4210562;28;21312;-85
2022/06/10 03:16:45;;;;;;;4.63;3.90;;;;;;;12.61;92.63;98773.28;4206150;28;20651;-85
2022/06/10 03:18:52;;;;;;;9.83;4.10;;;;;;;12.57;91.05;98766.56;4220989;28;20633;-86
2022/06/10 03:21:02;;;;;;;6.27;4.63;;;;;;;12.52;91.65;98768.66;4220384;28;21166;-86
2022/06/10 03:23:17;;;;;;;10.53;3.90;;;;;;;12.48;89.25;98770.66;4222809;28;20636;-86
2022/06/10 03:25:24;;;;;;;5.07;3.90;;;;;;;12.46;89.47;98776.91;4207455;28;20668;-85
2022/06/10 03:27:31;;;;;;;5.63;3.73;;;;;;;12.43;91.25;98774.47;4200830;28;20687;-85
2022/06/10 03:29:37;;;;;;;5.50;4.30;;;;;;;12.42;89.95;98778.06;4228365;28;20717;-85
2022/06/10 03:31:42;;;;;;;6.50;4.80;;;;;;;12.41;90.69;98776.38;4227438;28;20996;-86
2022/06/10 03:33:48;;;;;;;10.87;4.80;;;;;;;12.43;92.72;98774.47;4225247;28;20621;-86
2022/06/10 03:35:56;;;;;;;5.57;4.30;;;;;;;12.45;91.24;98780.47;4221746;28;20628;-86
2022/06/10 03:38:02;;;;;;;5.73;4.30;;;;;;;12.48;91.70;98783.72;4212941;28;20690;-85
2022/06/10 03:40:07;;;;;;;6.07;3.90;;;;;;;12.48;92.07;98785.47;4200196;28;20624;-86
2022/06/10 03:42:15;;;;;;;4.80;4.40;;;;;;;12.51;92.10;98780.91;4221829;28;20654;-86
2022/06/10 03:44:19;;;;;;;4.87;4.03;;;;;;;12.51;90.50;98787.91;4213136;28;20697;-88
2022/06/10 03:46:24;;;;;;;6.07;4.20;;;;;;;12.47;91.26;98791.66;4226047;28;20689;-88
2022/06/10 03:48:29;;;;;;;6.90;4.30;;;;;;;12.44;91.32;98791.88;4206573;28;20669;-88
2022/06/10 03:50:40;;;;;;;6.17;3.83;;;;;;;12.42;90.34;98793.75;4230856;28;20724;-88
2022/06/10 03:52:44;;;;;;;6.33;3.50;;;;;;;12.38;89.80;98798.31;4205205;28;21051;-88
2022/06/10 03:54:49;;;;;;;4.90;3.60;;;;;;;12.37;90.75;98806.28;4213007;28;20693;-89
2022/06/10 03:57:01;;;;;;;3.93;3.57;;;;;;;12.36;91.09;98805.44;4228434;28;20645;-89
2022/06/10 03:59:04;;;;;;;5.60;3.70;;;;;;;12.37;91.89;98804.50;4211520;28;20642;-88
2022/06/10 04:01:08;;;;;;;6.37;4.33;;;;;;;12.37;91.28;98807.13;4218858;28;20729;-88
2022/06/10 04:03:11;;;;;;;5.37;4.50;;;;;;;12.40;90.98;98811.31;4222916;28;20636;-87
2022/06/10 04:05:15;;;;;;;7.57;3.90;;;;;;;12.41;92.35;98811.22;4221448;28;20987;-88
2022/06/10 04:07:20;;;;;;;5.07;4.20;;;;;;;12.47;91.00;98812.59;4211288;28;20631;-88
2022/06/10 04:09:23;;;;;;;8.30;4.63;;;;;;;12.54;92.61;98813.88;4211873;28;20673;-88
2022/06/10 04:11:28;;;;;;;4.93;3.93;;;;;;;12.60;92.26;98811.72;4222676;28;20638;-88
2022/06/10 04:13:31;;;;;;;6.13;3.93;;;;;;;12.67;91.93;98820.81;4221285;28;20722;-87
2022/06/10 04:15:35;;;;;;;7.20;4.73;;;;;;;12.74;92.53;98817.72;4205732;28;20987;-88
2022/06/10 04:17:38;;;;;;;7.93;4.53;;;;;;;12.81;92.04;98826.84;4208581;28;21083;-88
2022/06/10 04:19:41;;;;;;;6.07;4.60;;;;;;;12.87;93.02;98830.88;4230109;28;20699;-88
2022/06/10 04:21:45;;;;;;;4.70;4.07;;;;;;;12.91;92.72;98825.31;4210506;28;21122;-88
2022/06/10 04:23:48;;;;;;;7.10;4.03;;;;;;;12.94;92.64;98824.28;4213485;28;20666;-88
2022/06/10 04:25:51;;;;;;;8.70;4.10;;;;;;;12.96;91.95;98825.88;4223171;28;21197;-88
2022/06/10 04:27:56;;;;;;;6.07;4.20;;;;;;;13.01;92.75;98831.66;4217868;28;21189;-88
2022/06/10 04:29:59;;;;;;;5.30;4.20;;;;;;;13.05;92.83;98830.50;4211788;28;20972;-88
2022/06/10 04:32:02;;;;;;;6.30;4.00;;;;;;;13.08;92.36;98825.06;4224610;28;20627;-88
2022/06/10 04:34:05;;;;;;;6.13;4.30;;;;;;;13.12;91.17;98831.75;4208147;28;20612;-88
2022/06/10 04:36:10;;;;;;;8.87;4.70;;;;;;;13.13;91.91;98837.88;4228661;28;20991;-88
2022/06/10 04:38:17;;;;;;;7.70;4.50;;;;;;;13.18;92.43;98835.78;4229941;28;21266;-88
2022/06/10 04:40:23;;;;;;;7.13;4.33;;;;;;;13.22;91.79;98830.22;4207016;28;20637;-87
2022/06/10 04:42:26;;;;;;;7.70;4.63;;;;;;;13.25;91.36;98824.78;4221634;28;20622;-88
2022/06/10 04:44:31;;;;;;;6.50;4.83;;;;;;;13.29;90.51;98826.22;4205192;28;20730;-88
2022/06/10 04:46:37;;;;;;;6.50;4.90;;;;;;;13.29;90.87;98826.22;4212445;28;20638;-88
2022/06/10 04:48:41;;;;;;;8.43;4.83;;;;;;;13.30;91.06;98828.75;4215129;28;20635;-88
2022/06/10 04:50:47;;;;;;;7.50;5.60;;;;;;;13.35;91.40;98829.31;4211623;28;20632;-87
2022/06/10 04:52:51;;;;;;;7.37;4.80;;;;;;;13.42;92.15;98833.16;4213599;28;20657;-88
2022/06/10 04:54:54;;;;;;;6.50;4.67;;;;;;;13.47;91.94;98835.47;4219719;28;20634;-87
2022/06/10 04:56:57;;;;;;;5.90;4.63;;;;;;;13.52;91.71;98841.25;4218844;28;21055;-88
2022/06/10 04:59:13;;;;;;;5.40;4.87;;;;;;;13.57;91.98;98837.38;4223024;28;21288;-87
2022/06/10 05:01:18;;;;;;;8.00;5.53;;;;;;;13.63;92.37;98841.38;4207677;28;20692;-88
2022/06/10 05:03:27;;;;;;;7.90;4.60;;;;;;;13.70;92.19;98839.03;4230138;28;20628;-88
2022/06/10 05:05:31;;;;;;;7.03;4.67;;;;;;;13.76;91.90;98836.00;4214508;28;20645;-87
2022/06/10 05:07:35;;;;;;;6.60;4.70;;;;;;;13.84;92.55;98840.72;4218537;28;20640;-88
2022/06/10 05:09:39;;;;;;;5.77;4.43;;;;;;;13.90;92.52;98837.66;4223744;28;20722;-88
2022/06/10 05:11:43;;;;;;;6.30;4.63;;;;;;;13.96;92.19;98843.31;4218493;28;20742;-88
2022/06/10 05:13:46;;;;;;;8.00;4.43;;;;;;;14.04;91.89;98846.22;4211568;28;20996;-88
2022/06/10 05:15:50;;;;;;;6.90;4.80;;;;;;;14.10;91.20;98848.47;4219633;28;21285;-88
2022/06/10 05:18:14;;;;;;;6.10;4.40;;;;;;;14.20;92.16;98852.13;4220210;28;20651;-87
2022/06/10 05:20:22;;;;;;;8.17;5.87;;;;;;;14.27;92.38;98851.59;4217466;28;20712;-88
2022/06/10 05:22:25;;;;;;;7.43;5.10;;;;;;;14.40;91.64;98851.56;4209636;28;21015;-88
2022/06/10 05:24:28;;;;;;;5.20;4.50;;;;;;;14.48;91.49;98857.09;4225692;28;20626;-88
2022/06/10 05:26:32;;;;;;;8.07;4.80;;;;;;;14.59;92.45;98847.50;4211833;28;20669;-88
2022/06/10 05:28:35;;;;;;;7.93;4.90;;;;;;;14.68;92.31;98852.91;4222981;28;21252;-88
2022/06/10 05:30:58;;;;;;;6.30;5.10;;;;;;;14.82;91.89;98863.25;4216986;28;20612;-88
2022/06/10 05:33:06;;;;;;;5.27;3.83;;;;;;;14.96;91.73;98864.88;4207883;28;20671;-89
2022/06/10 05:35:12;;;;;;;7.03;4.33;;;;;;;15.09;90.77;98869.97;4224693;28;20655;-88
2022/06/10 05:37:19;;;;;;;8.57;5.40;;;;;;;15.30;89.93;98875.44;4215538;28;20636;-88
2022/06/10 05:39:22;;;;;;;7.57;4.47;;;;;;;15.57;89.21;98872.44;4219574;28;20620;-88
2022/06/10 05:43:47;;;;;;;5.80;4.40;;;;;;;16.28;87.19;98875.59;4223120;28;20684;-87
2022/06/10 05:45:50;;;;;;;5.93;3.97;;;;;;;16.59;85.56;98891.50;4224481;28;21000;-88
2022/06/10 05:47:56;;;;;;;6.57;4.47;;;;;;;16.98;84.94;98883.88;4217701;28;21187;-88
2022/06/10 05:50:22;;;;;;;7.40;4.27;;;;;;;17.41;85.08;98893.44;4219224;28;21030;-88
2022/06/10 05:52:28;;;;;;;8.13;4.47;;;;;;;17.74;84.19;98894.09;4209294;28;20730;-88
2022/06/10 05:54:31;;;;;;;5.20;4.47;;;;;;;18.04;82.70;98896.75;4211447;28;20735;-88
2022/06/10 05:56:53;;;;;;;4.83;4.30;;;;;;;18.39;81.01;98891.94;4218392;27;20641;-86
2022/06/10 05:58:56;;;;;;;6.57;4.73;;;;;;;18.63;81.00;98898.59;4226856;28;20732;-86
2022/06/10 06:00:59;;;;;;;6.73;4.50;;;;;;;18.88;80.09;98898.91;4217660;28;20610;-86
2022/06/10 06:03:02;;;;;;;7.07;4.80;;;;;;;19.05;79.31;98900.97;4209760;28;20661;-86
2022/06/10 06:05:07;;;;;;;5.60;4.10;;;;;;;19.28;77.88;98910.31;4206233;28;20684;-86
2022/06/10 06:07:17;;;;;;;4.57;3.70;;;;;;;19.48;77.28;98907.50;4212649;28;20625;-85
2022/06/10 06:09:21;;;;;;;7.93;4.83;;;;;;;19.70;76.72;98904.59;4206997;28;20634;-86
2022/06/10 06:11:25;;;;;;;5.03;4.10;;;;;;;19.96;73.76;98898.56;4208954;28;20993;-86
2022/06/10 06:13:28;;;;;;;4.80;3.70;;;;;;;20.22;73.65;98905.75;4212590;28;21182;-85
2022/06/10 06:15:32;;;;;;;6.40;4.10;;;;;;;20.46;75.43;98914.03;4224263;28;20724;-86
2022/06/10 06:17:35;;;;;;;6.63;4.10;;;;;;;20.76;76.44;98914.59;4199830;28;20635;-86
2022/06/10 06:19:39;;;;;;;4.80;4.10;;;;;;;21.01;75.02;98914.75;4211517;28;21023;-85
2022/06/10 06:21:42;;;;;;;5.50;3.97;;;;;;;21.27;75.22;98916.53;4227247;28;20695;-86
2022/06/10 06:23:47;;;;;;;5.10;3.50;;;;;;;21.50;73.71;98917.78;4216487;28;20632;-86
2022/06/10 06:25:50;;;;;;;4.77;3.83;;;;;;;21.60;69.96;98915.03;4218274;28;21245;-85
2022/06/10 06:27:53;;;;;;;6.23;3.53;;;;;;;21.75;71.07;98927.63;4218330;28;20994;-86
2022/06/10 06:30:00;;;;;;;9.40;4.10;;;;;;;22.01;69.71;98925.84;4222280;28;20618;-86
2022/06/10 06:32:04;;;;;;;8.00;4.10;;;;;;;22.09;68.98;98918.75;4219410;28;21206;-86
2022/06/10 06:34:26;;;;;;;4.10;3.23;;;;;;;22.27;68.75;98915.09;4226794;28;20624;-86
2022/06/10 06:36:33;;;;;;;4.70;3.40;;;;;;;22.43;68.16;98924.97;4207936;28;20622;-86
2022/06/10 06:38:37;;;;;;;4.53;3.53;;;;;;;22.59;66.92;98922.41;4213131;28;20646;-86
2022/06/10 06:40:43;;;;;;;4.43;3.73;;;;;;;22.75;66.06;98929.47;4220793;28;20629;-85
2022/06/10 06:42:47;;;;;;;5.10;3.90;;;;;;;22.92;65.54;98927.72;4218736;28;20625;-86
2022/06/10 06:44:50;;;;;;;5.90;3.80;;;;;;;23.10;64.36;98921.31;4212810;28;21274;-85
2022/06/10 06:47:14;;;;;;;5.60;4.10;;;;;;;23.23;64.60;98927.84;4211177;28;20760;-86
2022/06/10 06:49:19;;;;;;;4.60;3.80;;;;;;;23.33;63.82;98933.88;4229703;27;20648;-86
2022/06/10 06:51:23;;;;;;;8.30;4.53;;;;;;;23.39;64.51;98924.38;4207021;28;20643;-86
2022/06/10 06:53:26;;;;;;;5.73;3.70;;;;;;;23.46;63.56;98933.41;4219326;28;20693;-86
2022/06/10 06:55:29;;;;;;;6.10;4.27;;;;;;;23.46;63.76;98928.06;4206527;28;20631;-86
2022/06/10 06:57:34;;;;;;;5.00;3.90;;;;;;;23.65;63.88;98933.97;4205005;28;20616;-86
2022/06/10 06:59:37;;;;;;;4.27;3.37;;;;;;;23.77;64.23;98940.63;4207958;28;20761;-86
2022/06/10 07:01:40;;;;;;;5.00;3.70;;;;;;;23.92;64.30;98938.94;4213216;28;20628;-85
2022/06/10 07:03:44;;;;;;;5.13;3.70;;;;;;;24.03;63.91;98933.31;4219843;28;21245;-86
2022/06/10 07:05:48;;;;;;;4.10;3.33;;;;;;;24.09;63.17;98928.13;4222953;28;20618;-87
2022/06/10 07:07:52;;;;;;;6.23;3.33;;;;;;;24.15;64.69;98929.28;4210344;28;20718;-85
2022/06/10 07:09:55;;;;;;;5.73;3.17;;;;;;;24.31;66.85;98936.25;4212171;28;20655;-86
2022/06/10 07:11:58;;;;;;;8.70;3.50;;;;;;;24.43;63.51;98931.41;4219979;28;20784;-86
2022/06/10 07:14:03;;;;;;;4.63;3.87;;;;;;;24.44;62.74;98927.75;4220394;28;20624;-86
2022/06/10 07:16:08;;;;;;;6.67;4.20;;;;;;;24.50;62.69;98938.56;4206785;28;20631;-86
2022/06/10 07:18:11;;;;;;;5.70;3.50;;;;;;;24.56;62.34;98935.22;4208082;28;20628;-86
2022/06/10 07:20:23;;;;;;;7.07;4.07;;;;;;;24.65;62.20;98931.53;4218338;28;20661;-86
2022/06/10 07:22:26;;;;;;;5.40;4.00;;;;;;;24.65;61.06;98931.53;4209293;28;20637;-86
2022/06/10 07:24:30;;;;;;;5.87;4.50;;;;;;;24.66;61.31;98933.22;4214767;28;20618;-86
2022/06/10 07:26:51;;;;;;;6.10;3.90;;;;;;;24.67;62.43;98933.03;4213347;28;20620;-85
2022/06/10 07:28:55;;;;;;;5.27;4.53;;;;;;;24.64;60.34;98927.19;4219332;28;20630;-86
2022/06/10 07:30:59;;;;;;;5.67;4.20;;;;;;;24.69;61.58;98922.19;4214602;28;20733;-86
2022/06/10 07:33:02;;;;;;;7.83;4.70;;;;;;;24.82;63.29;98922.44;4225368;28;20635;-86
2022/06/10 07:35:07;;;;;;;8.37;4.70;;;;;;;24.91;62.26;98926.75;4225207;28;20681;-86
2022/06/10 07:37:10;;;;;;;5.80;4.70;;;;;;;24.96;61.48;98927.91;4209082;28;20644;-86
2022/06/10 07:39:13;;;;;;;7.47;4.60;;;;;;;25.17;62.58;98929.00;4204147;28;20667;-86
2022/06/10 07:43:56;;;;;;;7.07;4.70;;;;;;;25.60;60.62;98915.88;4217592;28;20648;-86
2022/06/10 07:46:02;;;;;;;7.43;4.20;;;;;;;25.65;60.66;98923.41;4226317;28;21094;-86
2022/06/10 07:48:06;;;;;;;7.37;3.50;;;;;;;25.68;61.15;98923.03;4198186;28;20611;-86
2022/06/10 07:50:10;;;;;;;4.60;2.90;;;;;;;25.73;59.99;98912.63;4213594;28;20640;-86
2022/06/10 07:52:14;;;;;;;4.97;3.10;;;;;;;25.85;59.11;98920.06;4201018;28;20675;-86
2022/06/10 07:54:17;;;;;;;4.33;3.23;;;;;;;25.88;60.07;98921.53;4218728;28;20639;-86
2022/06/10 07:56:22;;;;;;;7.63;3.73;;;;;;;25.93;60.99;98919.97;4219701;28;20663;-86
2022/06/10 07:58:28;;;;;;;6.57;3.80;;;;;;;26.02;59.76;98915.41;4217891;28;20639;-86
2022/06/10 08:00:34;;;;;;;5.60;3.20;;;;;;;26.05;59.41;98915.84;4222779;28;20667;-86
2022/06/10 08:02:38;;;;;;;6.40;3.63;;;;;;;26.04;60.64;98908.00;4204600;28;20966;-86
2022/06/10 08:05:00;;;;;;;4.60;3.50;;;;;;;26.06;59.79;98914.03;4224846;28;20663;-86
2022/06/10 08:07:04;;;;;;;5.60;3.73;;;;;;;26.10;59.00;98911.63;4219793;28;20707;-86
2022/06/10 08:09:16;;;;;;;6.57;3.60;;;;;;;26.20;62.50;98908.69;4217654;28;21074;-86
2022/06/10 08:11:20;;;;;;;7.03;3.47;;;;;;;26.32;60.67;98916.13;4222497;28;20628;-86
2022/06/10 08:13:23;;;;;;;5.53;3.73;;;;;;;26.40;59.46;98916.06;4218933;28;20635;-86
2022/06/10 08:15:32;;;;;;;4.53;3.63;;;;;;;26.39;57.31;98914.38;4206791;28;20639;-86
2022/06/10 08:17:35;;;;;;;6.43;4.60;;;;;;;26.40;58.21;98918.75;4213141;28;20715;-86
2022/06/10 08:19:40;;;;;;;6.37;4.30;;;;;;;26.38;57.32;98914.56;4220809;28;20687;-86
2022/06/10 08:24:08;;;;;;;5.47;4.13;;;;;;;26.61;60.52;98913.47;4220721;28;20638;-86
2022/06/10 08:26:12;;;;;;;8.43;4.37;;;;;;;26.79;60.44;98911.25;4219543;28;20619;-86
2022/06/10 08:28:16;;;;;;;6.73;4.10;;;;;;;26.95;60.55;98908.41;4216931;28;20692;-87
2022/06/10 08:30:21;;;;;;;7.17;3.93;;;;;;;27.04;60.70;98912.66;4209919;28;20655;-87
2022/06/10 08:32:25;;;;;;;7.40;4.30;;;;;;;27.11;59.08;98917.06;4226273;28;20616;-86
2022/06/10 08:34:28;;;;;;;5.27;3.13;;;;;;;26.99;57.48;98912.38;4222627;28;21175;-86
2022/06/10 08:36:33;;;;;;;6.50;3.40;;;;;;;26.99;60.86;98917.72;4211786;28;21000;-86
2022/06/10 08:38:55;;;;;;;4.10;2.90;;;;;;;26.92;59.60;98914.16;4220281;28;20621;-86
2022/06/10 08:41:03;;;;;;;4.90;3.73;;;;;;;26.89;56.38;98914.53;4218289;28;20717;-86
2022/06/10 08:43:15;;;;;;;5.73;3.57;;;;;;;26.75;57.11;98912.66;4221930;28;21248;-86
2022/06/10 08:45:22;;;;;;;8.07;3.20;;;;;;;26.83;57.71;98915.22;4219378;28;21078;-86
2022/06/10 08:47:50;;;;;;;4.90;3.63;;;;;;;26.80;57.61;98912.91;4223951;28;20659;-86
2022/06/10 08:50:02;;;;;;;9.50;3.37;;;;;;;26.73;55.81;98903.94;4213886;28;20725;-86
2022/06/10 08:52:11;;;;;;;8.03;3.27;;;;;;;26.78;59.56;98905.06;4217890;28;21188;-87
2022/06/10 08:54:16;;;;;;;10.13;3.50;;;;;;;26.74;58.51;98910.97;4220307;28;20666;-86
2022/06/10 08:56:24;;;;;;;6.17;3.13;;;;;;;26.73;58.35;98902.13;4218523;28;20666;-86
2022/06/10 08:58:32;;;;;;;7.23;3.70;;;;;;;26.70;58.79;98910.53;4208908;28;20617;-86
2022/06/10 09:00:37;;;;;;;8.03;3.40;;;;;;;26.53;59.99;98900.19;4209116;28;21036;-86
2022/06/10 09:02:43;;;;;;;5.20;3.60;;;;;;;26.60;61.19;98906.47;4218882;28;20671;-86
2022/06/10 09:04:52;;;;;;;10.67;3.97;;;;;;;26.65;58.51;98901.38;4218480;28;20648;-86
2022/06/10 09:06:58;;;;;;;11.67;4.10;;;;;;;26.61;61.18;98913.47;4217510;28;20738;-86
2022/06/10 09:09:06;;;;;;;5.13;3.33;;;;;;;26.69;61.20;98913.41;4227449;28;20632;-86
2022/06/10 09:11:18;;;;;;;5.77;3.60;;;;;;;26.59;58.41;98912.81;4228373;28;20647;-86
2022/06/10 09:13:28;;;;;;;10.00;4.00;;;;;;;26.58;62.89;98908.47;4230340;28;20673;-87
2022/06/10 09:15:33;;;;;;;5.73;3.70;;;;;;;26.57;60.12;98904.16;4219607;28;20629;-86
2022/06/10 09:17:38;;;;;;;6.80;4.33;;;;;;;26.56;58.34;98902.47;4220456;28;21063;-86
2022/06/10 09:19:48;;;;;;;7.33;3.43;;;;;;;26.45;56.52;98897.59;4213412;28;21057;-86
2022/06/10 09:21:57;;;;;;;6.40;3.47;;;;;;;26.36;57.75;98892.53;4212367;28;21015;-86
2022/06/10 09:24:07;;;;;;;5.10;3.87;;;;;;;26.45;58.16;98899.47;4210205;28;20720;-86
2022/06/10 09:26:16;;;;;;;6.40;3.87;;;;;;;26.31;58.48;98890.41;4222377;28;20736;-86
2022/06/10 09:28:23;;;;;;;7.00;3.40;;;;;;;26.17;60.84;98893.00;4219894;28;20637;-86
2022/06/10 09:30:31;;;;;;;6.33;3.20;;;;;;;26.24;60.02;98884.06;4212445;28;21263;-87
2022/06/10 09:32:44;;;;;;;6.10;3.80;;;;;;;26.46;60.22;98898.41;4210870;28;20632;-86
2022/06/10 09:35:03;;;;;;;6.43;3.33;;;;;;;26.50;62.38;98902.41;4227039;28;20685;-87
2022/06/10 09:37:11;;;;;;;6.60;3.90;;;;;;;26.55;60.31;98897.31;4228928;28;20631;-86
2022/06/10 09:42:17;;;;;;;6.60;3.80;;;;;;;26.47;57.65;98906.25;4206452;28;20622;-86
2022/06/10 09:44:27;;;;;;;6.13;3.90;;;;;;;26.41;60.11;98900.81;4211414;28;20668;-86
2022/06/10 09:46:54;;;;;;;5.00;3.07;;;;;;;26.36;56.94;98898.69;4221504;28;20739;-87
2022/06/10 09:49:12;;;;;;;5.97;3.70;;;;;;;26.50;61.51;98897.88;4210874;28;20974;-87
2022/06/10 09:51:35;;;;;;;6.20;2.73;;;;;;;26.50;58.59;98895.19;4226325;28;21029;-87
2022/06/10 09:54:07;;;;;;;9.93;3.40;;;;;;;26.63;59.63;98890.84;4207731;28;20737;-86
2022/06/10 09:56:25;;;;;;;7.53;3.63;;;;;;;26.66;56.52;98897.69;4219557;28;20661;-87
2022/06/10 09:58:47;;;;;;;4.67;2.70;;;;;;;26.66;58.62;98895.03;4220793;28;20662;-87
2022/06/10 10:00:56;;;;;;;5.63;3.00;;;;;;;26.69;58.92;98897.31;4216727;28;20683;-87
2022/06/10 10:03:13;;;;;;;8.20;3.30;;;;;;;26.63;58.15;98900.75;4221675;28;20625;-87
2022/06/10 10:05:25;;;;;;;6.33;2.77;;;;;;;26.72;59.29;98889.75;4209124;28;20612;-87
2022/06/10 10:07:35;;;;;;;4.60;2.53;;;;;;;26.70;56.85;98893.63;4217104;28;20609;-87
2022/06/10 10:09:51;;;;;;;3.60;2.70;;;;;;;26.69;58.56;98892.78;4224789;28;20622;-86
2022/06/10 10:12:13;;;;;;;4.07;3.20;;;;;;;26.65;59.24;98882.63;4209900;28;20710;-86
2022/06/10 10:14:24;;;;;;;5.00;2.70;;;;;;;26.60;57.75;98882.38;4216387;28;21026;-86